sensor_id;sensor_type;location;lat;lon;timestamp;temperature;humidity
4856;DHT22;2442;48.676;7.986;2022-10-31T00:00:43;9.70;99.90
4856;DHT22;2442;48.676;7.986;2022-10-31T00:03:10;9.70;99.90
4856;DHT22;2442;48.676;7.986;2022-10-31T00:05:40;9.70;99.90
4856;DHT22;2442;48.676;7.986;2022-10-31T00:08:08;9.70;99.90
4856;DHT22;2442;48.676;7.986;2022-10-31T00:10:38;9.60;99.90
4856;DHT22;2442;48.676;7.986;2022-10-31T00:13:06;9.70;99.90
4856;DHT22;2442;48.676;7.986;2022-10-31T00:15:33;9.70;99.90
4856;DHT22;2442;48.676;7.986;2022-10-31T00:18:01;9.60;99.90
4856;DHT22;2442;48.676;7.986;2022-10-31T00:20:28;9.70;99.90
4856;DHT22;2442;48.676;7.986;2022-10-31T00:22:57;9.70;99.90
4856;DHT22;2442;48.676;7.986;2022-10-31T00:25:25;9.80;99.90
4856;DHT22;2442;48.676;7.986;2022-10-31T00:27:53;9.90;99.90
4856;DHT22;2442;48.676;7.986;2022-10-31T00:30:20;9.90;99.90
4856;DHT22;2442;48.676;7.986;2022-10-31T00:32:47;9.80;99.90
4856;DHT22;2442;48.676;7.986;2022-10-31T00:35:14;9.80;99.90
4856;DHT22;2442;48.676;7.986;2022-10-31T00:37:42;9.80;99.90
4856;DHT22;2442;48.676;7.986;2022-10-31T00:40:10;9.80;99.90
4856;DHT22;2442;48.676;7.986;2022-10-31T00:42:39;9.70;99.90
4856;DHT22;2442;48.676;7.986;2022-10-31T00:45:09;9.70;99.90
4856;DHT22;2442;48.676;7.986;2022-10-31T00:47:37;9.60;99.90
4856;DHT22;2442;48.676;7.986;2022-10-31T00:50:04;9.60;99.90
4856;DHT22;2442;48.676;7.986;2022-10-31T00:52:32;9.70;99.90
4856;DHT22;2442;48.676;7.986;2022-10-31T00:55:00;9.90;99.90
4856;DHT22;2442;48.676;7.986;2022-10-31T00:57:27;10.00;99.90
4856;DHT22;2442;48.676;7.986;2022-10-31T00:59:54;9.70;99.90
4856;DHT22;2442;48.676;7.986;2022-10-31T01:02:22;9.60;99.90
4856;DHT22;2442;48.676;7.986;2022-10-31T01:04:49;9.60;99.90
4856;DHT22;2442;48.676;7.986;2022-10-31T01:07:16;9.50;99.90
4856;DHT22;2442;48.676;7.986;2022-10-31T01:09:43;9.60;99.90
4856;DHT22;2442;48.676;7.986;2022-10-31T01:12:10;9.60;99.90
4856;DHT22;2442;48.676;7.986;2022-10-31T01:14:37;9.50;99.90
4856;DHT22;2442;48.676;7.986;2022-10-31T01:17:04;9.40;99.90
4856;DHT22;2442;48.676;7.986;2022-10-31T01:19:32;9.40;99.90
4856;DHT22;2442;48.676;7.986;2022-10-31T01:21:59;9.40;99.90
4856;DHT22;2442;48.676;7.986;2022-10-31T01:24:26;9.30;99.90
4856;DHT22;2442;48.676;7.986;2022-10-31T01:26:53;9.30;99.90
4856;DHT22;2442;48.676;7.986;2022-10-31T01:29:20;9.30;99.90
4856;DHT22;2442;48.676;7.986;2022-10-31T01:31:47;9.30;99.90
4856;DHT22;2442;48.676;7.986;2022-10-31T01:34:16;9.40;99.90
4856;DHT22;2442;48.676;7.986;2022-10-31T01:36:46;9.40;99.90
4856;DHT22;2442;48.676;7.986;2022-10-31T01:39:17;9.50;99.90
4856;DHT22;2442;48.676;7.986;2022-10-31T01:41:46;9.40;99.90
4856;DHT22;2442;48.676;7.986;2022-10-31T01:44:50;9.40;99.90
4856;DHT22;2442;48.676;7.986;2022-10-31T01:47:26;9.40;99.90
4856;DHT22;2442;48.676;7.986;2022-10-31T01:49:59;9.50;99.90
4856;DHT22;2442;48.676;7.986;2022-10-31T01:52:31;9.50;99.90
4856;DHT22;2442;48.676;7.986;2022-10-31T01:55:03;9.40;99.90
4856;DHT22;2442;48.676;7.986;2022-10-31T01:57:33;9.40;99.90
4856;DHT22;2442;48.676;7.986;2022-10-31T02:00:06;9.40;99.90
4856;DHT22;2442;48.676;7.986;2022-10-31T02:02:35;9.30;99.90
4856;DHT22;2442;48.676;7.986;2022-10-31T02:05:05;9.30;99.90
4856;DHT22;2442;48.676;7.986;2022-10-31T02:07:39;9.40;99.90
4856;DHT22;2442;48.676;7.986;2022-10-31T02:10:09;9.40;99.90
4856;DHT22;2442;48.676;7.986;2022-10-31T02:12:36;9.30;99.90
4856;DHT22;2442;48.676;7.986;2022-10-31T02:15:05;9.30;99.90
4856;DHT22;2442;48.676;7.986;2022-10-31T02:17:34;9.10;99.90
4856;DHT22;2442;48.676;7.986;2022-10-31T02:20:09;9.10;99.90
4856;DHT22;2442;48.676;7.986;2022-10-31T02:26:07;9.00;99.90
4856;DHT22;2442;48.676;7.986;2022-10-31T02:28:57;9.20;99.90
4856;DHT22;2442;48.676;7.986;2022-10-31T02:31:39;9.30;99.90
4856;DHT22;2442;48.676;7.986;2022-10-31T02:34:16;9.30;99.90
4856;DHT22;2442;48.676;7.986;2022-10-31T02:36:51;9.10;99.90
4856;DHT22;2442;48.676;7.986;2022-10-31T02:39:24;9.20;99.90
4856;DHT22;2442;48.676;7.986;2022-10-31T02:41:59;9.10;99.90
4856;DHT22;2442;48.676;7.986;2022-10-31T02:44:33;9.20;99.90
4856;DHT22;2442;48.676;7.986;2022-10-31T02:47:06;9.10;99.90
4856;DHT22;2442;48.676;7.986;2022-10-31T02:49:39;9.20;99.90
4856;DHT22;2442;48.676;7.986;2022-10-31T02:52:17;9.10;99.90
4856;DHT22;2442;48.676;7.986;2022-10-31T02:54:46;9.10;99.90
4856;DHT22;2442;48.676;7.986;2022-10-31T02:57:17;9.20;99.90
4856;DHT22;2442;48.676;7.986;2022-10-31T02:59:50;9.00;99.90
4856;DHT22;2442;48.676;7.986;2022-10-31T03:02:43;9.00;99.90
4856;DHT22;2442;48.676;7.986;2022-10-31T03:05:40;9.00;99.90
4856;DHT22;2442;48.676;7.986;2022-10-31T03:08:22;9.00;99.90
4856;DHT22;2442;48.676;7.986;2022-10-31T03:10:55;9.00;99.90
4856;DHT22;2442;48.676;7.986;2022-10-31T03:13:33;9.00;99.90
4856;DHT22;2442;48.676;7.986;2022-10-31T03:16:07;8.90;99.90
4856;DHT22;2442;48.676;7.986;2022-10-31T03:18:41;8.80;99.90
4856;DHT22;2442;48.676;7.986;2022-10-31T03:21:13;8.80;99.90
4856;DHT22;2442;48.676;7.986;2022-10-31T03:23:44;8.80;99.90
4856;DHT22;2442;48.676;7.986;2022-10-31T03:26:13;8.90;99.90
4856;DHT22;2442;48.676;7.986;2022-10-31T03:28:44;8.90;99.90
4856;DHT22;2442;48.676;7.986;2022-10-31T03:31:16;9.00;99.90
4856;DHT22;2442;48.676;7.986;2022-10-31T03:33:48;9.00;99.90
4856;DHT22;2442;48.676;7.986;2022-10-31T03:36:17;9.00;99.90
4856;DHT22;2442;48.676;7.986;2022-10-31T03:38:45;8.90;99.90
4856;DHT22;2442;48.676;7.986;2022-10-31T03:41:16;8.90;99.90
4856;DHT22;2442;48.676;7.986;2022-10-31T03:43:51;9.00;99.90
4856;DHT22;2442;48.676;7.986;2022-10-31T03:46:20;8.80;99.90
4856;DHT22;2442;48.676;7.986;2022-10-31T03:48:49;8.90;99.90
4856;DHT22;2442;48.676;7.986;2022-10-31T03:51:20;9.10;99.90
4856;DHT22;2442;48.676;7.986;2022-10-31T03:53:54;9.00;99.90
4856;DHT22;2442;48.676;7.986;2022-10-31T03:56:29;8.70;99.90
4856;DHT22;2442;48.676;7.986;2022-10-31T03:59:03;8.90;99.90
4856;DHT22;2442;48.676;7.986;2022-10-31T04:01:36;8.70;99.90
4856;DHT22;2442;48.676;7.986;2022-10-31T04:04:07;8.60;99.90
4856;DHT22;2442;48.676;7.986;2022-10-31T04:06:36;8.50;99.90
4856;DHT22;2442;48.676;7.986;2022-10-31T04:09:07;8.50;99.90
4856;DHT22;2442;48.676;7.986;2022-10-31T04:11:38;8.40;99.90
4856;DHT22;2442;48.676;7.986;2022-10-31T04:14:09;8.40;99.90
4856;DHT22;2442;48.676;7.986;2022-10-31T04:16:37;8.30;99.90
4856;DHT22;2442;48.676;7.986;2022-10-31T04:19:06;8.30;99.90
4856;DHT22;2442;48.676;7.986;2022-10-31T04:21:33;8.40;99.90
4856;DHT22;2442;48.676;7.986;2022-10-31T04:24:00;8.40;99.90
4856;DHT22;2442;48.676;7.986;2022-10-31T04:26:27;8.40;99.90
4856;DHT22;2442;48.676;7.986;2022-10-31T04:28:54;8.50;99.90
4856;DHT22;2442;48.676;7.986;2022-10-31T04:31:21;8.50;99.90
4856;DHT22;2442;48.676;7.986;2022-10-31T04:33:48;8.50;99.90
4856;DHT22;2442;48.676;7.986;2022-10-31T04:36:16;8.60;99.90
4856;DHT22;2442;48.676;7.986;2022-10-31T04:38:43;8.70;99.90
4856;DHT22;2442;48.676;7.986;2022-10-31T04:41:10;8.80;99.90
4856;DHT22;2442;48.676;7.986;2022-10-31T04:43:37;8.60;99.90
4856;DHT22;2442;48.676;7.986;2022-10-31T04:46:05;8.50;99.90
4856;DHT22;2442;48.676;7.986;2022-10-31T04:48:32;8.50;99.90
4856;DHT22;2442;48.676;7.986;2022-10-31T04:50:59;8.60;99.90
4856;DHT22;2442;48.676;7.986;2022-10-31T04:53:27;8.80;99.90
4856;DHT22;2442;48.676;7.986;2022-10-31T04:55:57;8.90;99.90
4856;DHT22;2442;48.676;7.986;2022-10-31T04:58:25;8.70;99.90
4856;DHT22;2442;48.676;7.986;2022-10-31T05:00:52;8.50;99.90
4856;DHT22;2442;48.676;7.986;2022-10-31T05:03:19;8.50;99.90
4856;DHT22;2442;48.676;7.986;2022-10-31T05:05:47;8.40;99.90
4856;DHT22;2442;48.676;7.986;2022-10-31T05:08:14;8.40;99.90
4856;DHT22;2442;48.676;7.986;2022-10-31T05:10:43;8.30;99.90
4856;DHT22;2442;48.676;7.986;2022-10-31T05:13:10;8.30;99.90
4856;DHT22;2442;48.676;7.986;2022-10-31T05:15:37;8.50;99.90
4856;DHT22;2442;48.676;7.986;2022-10-31T05:18:04;8.30;99.90
4856;DHT22;2442;48.676;7.986;2022-10-31T05:20:31;8.30;99.90
4856;DHT22;2442;48.676;7.986;2022-10-31T05:22:59;8.40;99.90
4856;DHT22;2442;48.676;7.986;2022-10-31T05:25:27;8.60;99.90
4856;DHT22;2442;48.676;7.986;2022-10-31T05:27:56;8.60;99.90
4856;DHT22;2442;48.676;7.986;2022-10-31T05:30:26;8.60;99.90
4856;DHT22;2442;48.676;7.986;2022-10-31T05:32:54;8.40;99.90
4856;DHT22;2442;48.676;7.986;2022-10-31T05:35:23;8.50;99.90
4856;DHT22;2442;48.676;7.986;2022-10-31T05:37:51;8.40;99.90
4856;DHT22;2442;48.676;7.986;2022-10-31T05:40:19;8.30;99.90
4856;DHT22;2442;48.676;7.986;2022-10-31T05:42:47;8.20;99.90
4856;DHT22;2442;48.676;7.986;2022-10-31T05:45:18;8.30;99.90
4856;DHT22;2442;48.676;7.986;2022-10-31T05:47:50;8.40;99.90
4856;DHT22;2442;48.676;7.986;2022-10-31T05:50:18;8.40;99.90
4856;DHT22;2442;48.676;7.986;2022-10-31T05:52:45;8.20;99.90
4856;DHT22;2442;48.676;7.986;2022-10-31T05:55:12;8.00;99.90
4856;DHT22;2442;48.676;7.986;2022-10-31T05:57:39;8.00;99.90
4856;DHT22;2442;48.676;7.986;2022-10-31T06:00:08;8.10;99.90
4856;DHT22;2442;48.676;7.986;2022-10-31T06:02:37;8.10;99.90
4856;DHT22;2442;48.676;7.986;2022-10-31T06:05:04;8.10;99.90
4856;DHT22;2442;48.676;7.986;2022-10-31T06:07:32;8.20;99.90
4856;DHT22;2442;48.676;7.986;2022-10-31T06:10:01;8.20;99.90
4856;DHT22;2442;48.676;7.986;2022-10-31T06:12:29;8.30;99.90
4856;DHT22;2442;48.676;7.986;2022-10-31T06:14:56;8.20;99.90
4856;DHT22;2442;48.676;7.986;2022-10-31T06:17:23;8.20;99.90
4856;DHT22;2442;48.676;7.986;2022-10-31T06:19:52;8.30;99.90
4856;DHT22;2442;48.676;7.986;2022-10-31T06:22:19;8.30;99.90
4856;DHT22;2442;48.676;7.986;2022-10-31T06:24:46;8.50;99.90
4856;DHT22;2442;48.676;7.986;2022-10-31T06:27:13;8.40;99.90
4856;DHT22;2442;48.676;7.986;2022-10-31T06:29:40;8.40;99.90
4856;DHT22;2442;48.676;7.986;2022-10-31T06:32:09;8.40;99.90
4856;DHT22;2442;48.676;7.986;2022-10-31T06:34:36;8.40;99.90
4856;DHT22;2442;48.676;7.986;2022-10-31T06:37:05;8.40;99.90
4856;DHT22;2442;48.676;7.986;2022-10-31T06:39:33;8.40;99.90
4856;DHT22;2442;48.676;7.986;2022-10-31T06:42:00;8.50;99.90
4856;DHT22;2442;48.676;7.986;2022-10-31T06:44:27;8.60;99.90
4856;DHT22;2442;48.676;7.986;2022-10-31T06:46:54;8.80;99.90
4856;DHT22;2442;48.676;7.986;2022-10-31T06:49:21;8.90;99.90
4856;DHT22;2442;48.676;7.986;2022-10-31T06:51:49;9.10;99.90
4856;DHT22;2442;48.676;7.986;2022-10-31T06:54:17;9.10;99.90
4856;DHT22;2442;48.676;7.986;2022-10-31T06:56:46;9.10;99.90
4856;DHT22;2442;48.676;7.986;2022-10-31T06:59:13;9.20;99.90
4856;DHT22;2442;48.676;7.986;2022-10-31T07:01:40;9.20;99.90
4856;DHT22;2442;48.676;7.986;2022-10-31T07:04:08;9.10;99.90
4856;DHT22;2442;48.676;7.986;2022-10-31T07:06:35;9.10;99.90
4856;DHT22;2442;48.676;7.986;2022-10-31T07:09:02;9.20;99.90
4856;DHT22;2442;48.676;7.986;2022-10-31T07:11:31;9.30;99.90
4856;DHT22;2442;48.676;7.986;2022-10-31T07:13:58;9.20;99.90
4856;DHT22;2442;48.676;7.986;2022-10-31T07:16:25;9.20;99.90
4856;DHT22;2442;48.676;7.986;2022-10-31T07:18:52;9.10;99.90
4856;DHT22;2442;48.676;7.986;2022-10-31T07:21:19;9.20;99.90
4856;DHT22;2442;48.676;7.986;2022-10-31T07:23:47;9.30;99.90
4856;DHT22;2442;48.676;7.986;2022-10-31T07:26:15;9.30;99.90
4856;DHT22;2442;48.676;7.986;2022-10-31T07:28:43;9.40;99.90
4856;DHT22;2442;48.676;7.986;2022-10-31T07:31:12;9.40;99.90
4856;DHT22;2442;48.676;7.986;2022-10-31T07:33:39;9.40;99.90
4856;DHT22;2442;48.676;7.986;2022-10-31T07:36:06;9.50;99.90
4856;DHT22;2442;48.676;7.986;2022-10-31T07:38:33;9.50;99.90
4856;DHT22;2442;48.676;7.986;2022-10-31T07:41:00;9.70;99.90
4856;DHT22;2442;48.676;7.986;2022-10-31T07:43:27;9.70;99.90
4856;DHT22;2442;48.676;7.986;2022-10-31T07:45:56;9.80;99.90
4856;DHT22;2442;48.676;7.986;2022-10-31T07:48:23;9.80;99.90
4856;DHT22;2442;48.676;7.986;2022-10-31T07:50:50;10.00;99.90
4856;DHT22;2442;48.676;7.986;2022-10-31T07:53:17;10.10;99.90
4856;DHT22;2442;48.676;7.986;2022-10-31T07:55:44;10.10;99.90
4856;DHT22;2442;48.676;7.986;2022-10-31T07:58:12;10.20;99.90
4856;DHT22;2442;48.676;7.986;2022-10-31T08:00:41;10.30;99.90
4856;DHT22;2442;48.676;7.986;2022-10-31T08:03:12;10.40;99.90
4856;DHT22;2442;48.676;7.986;2022-10-31T08:05:41;10.60;99.90
4856;DHT22;2442;48.676;7.986;2022-10-31T08:08:10;10.70;99.90
4856;DHT22;2442;48.676;7.986;2022-10-31T08:10:37;10.80;99.90
4856;DHT22;2442;48.676;7.986;2022-10-31T08:13:07;10.80;99.90
4856;DHT22;2442;48.676;7.986;2022-10-31T08:15:36;11.00;99.90
4856;DHT22;2442;48.676;7.986;2022-10-31T08:18:05;11.00;99.90
4856;DHT22;2442;48.676;7.986;2022-10-31T08:20:34;11.20;99.90
4856;DHT22;2442;48.676;7.986;2022-10-31T08:23:03;11.40;99.90
4856;DHT22;2442;48.676;7.986;2022-10-31T08:25:32;11.30;99.90
4856;DHT22;2442;48.676;7.986;2022-10-31T08:28:00;11.30;99.90
4856;DHT22;2442;48.676;7.986;2022-10-31T08:30:29;11.40;99.90
4856;DHT22;2442;48.676;7.986;2022-10-31T08:32:59;11.40;99.90
4856;DHT22;2442;48.676;7.986;2022-10-31T08:35:28;11.50;99.90
4856;DHT22;2442;48.676;7.986;2022-10-31T08:37:56;11.70;99.90
4856;DHT22;2442;48.676;7.986;2022-10-31T08:40:25;11.70;99.90
4856;DHT22;2442;48.676;7.986;2022-10-31T08:42:57;11.90;99.90
4856;DHT22;2442;48.676;7.986;2022-10-31T08:45:25;11.80;99.90
4856;DHT22;2442;48.676;7.986;2022-10-31T08:47:57;11.90;99.90
4856;DHT22;2442;48.676;7.986;2022-10-31T08:50:24;11.90;99.90
4856;DHT22;2442;48.676;7.986;2022-10-31T08:52:52;12.00;99.90
4856;DHT22;2442;48.676;7.986;2022-10-31T08:55:20;12.10;99.90
4856;DHT22;2442;48.676;7.986;2022-10-31T08:57:47;12.20;99.90
4856;DHT22;2442;48.676;7.986;2022-10-31T09:00:14;12.40;99.90
4856;DHT22;2442;48.676;7.986;2022-10-31T09:02:42;12.40;99.90
4856;DHT22;2442;48.676;7.986;2022-10-31T09:05:09;12.40;99.90
4856;DHT22;2442;48.676;7.986;2022-10-31T09:07:35;12.50;99.90
4856;DHT22;2442;48.676;7.986;2022-10-31T09:10:03;12.60;99.90
4856;DHT22;2442;48.676;7.986;2022-10-31T09:12:31;12.70;99.90
4856;DHT22;2442;48.676;7.986;2022-10-31T09:14:59;12.70;99.90
4856;DHT22;2442;48.676;7.986;2022-10-31T09:17:26;12.80;99.90
4856;DHT22;2442;48.676;7.986;2022-10-31T09:19:54;12.90;99.90
4856;DHT22;2442;48.676;7.986;2022-10-31T09:22:22;13.10;99.90
4856;DHT22;2442;48.676;7.986;2022-10-31T09:24:50;13.30;99.90
4856;DHT22;2442;48.676;7.986;2022-10-31T09:27:17;13.20;99.90
4856;DHT22;2442;48.676;7.986;2022-10-31T09:29:45;13.20;99.90
4856;DHT22;2442;48.676;7.986;2022-10-31T09:32:12;13.20;99.90
4856;DHT22;2442;48.676;7.986;2022-10-31T09:34:39;13.30;99.90
4856;DHT22;2442;48.676;7.986;2022-10-31T09:37:06;13.30;99.90
4856;DHT22;2442;48.676;7.986;2022-10-31T09:39:33;13.30;99.90
4856;DHT22;2442;48.676;7.986;2022-10-31T09:45:03;13.60;99.90
4856;DHT22;2442;48.676;7.986;2022-10-31T09:47:44;13.60;99.90
4856;DHT22;2442;48.676;7.986;2022-10-31T09:50:20;13.70;99.90
4856;DHT22;2442;48.676;7.986;2022-10-31T09:52:54;13.80;99.90
4856;DHT22;2442;48.676;7.986;2022-10-31T09:55:31;13.80;99.90
4856;DHT22;2442;48.676;7.986;2022-10-31T09:58:02;13.80;99.90
4856;DHT22;2442;48.676;7.986;2022-10-31T10:00:31;13.90;99.90
4856;DHT22;2442;48.676;7.986;2022-10-31T10:03:04;14.00;99.90
4856;DHT22;2442;48.676;7.986;2022-10-31T10:05:40;14.00;99.90
4856;DHT22;2442;48.676;7.986;2022-10-31T10:08:13;13.90;99.90
4856;DHT22;2442;48.676;7.986;2022-10-31T10:10:48;14.00;99.90
4856;DHT22;2442;48.676;7.986;2022-10-31T10:13:32;14.00;99.90
4856;DHT22;2442;48.676;7.986;2022-10-31T10:16:25;14.10;99.90
4856;DHT22;2442;48.676;7.986;2022-10-31T10:19:07;14.20;99.90
4856;DHT22;2442;48.676;7.986;2022-10-31T10:21:47;14.20;99.90
4856;DHT22;2442;48.676;7.986;2022-10-31T10:24:24;14.10;99.90
4856;DHT22;2442;48.676;7.986;2022-10-31T10:27:05;14.10;99.90
4856;DHT22;2442;48.676;7.986;2022-10-31T10:29:44;14.10;99.90
4856;DHT22;2442;48.676;7.986;2022-10-31T10:32:22;14.10;99.90
4856;DHT22;2442;48.676;7.986;2022-10-31T10:34:54;14.20;99.90
4856;DHT22;2442;48.676;7.986;2022-10-31T10:37:29;14.20;99.90
4856;DHT22;2442;48.676;7.986;2022-10-31T10:40:06;14.10;99.90
4856;DHT22;2442;48.676;7.986;2022-10-31T10:42:35;14.10;99.90
4856;DHT22;2442;48.676;7.986;2022-10-31T10:45:20;14.20;99.90
4856;DHT22;2442;48.676;7.986;2022-10-31T10:48:12;14.30;99.90
4856;DHT22;2442;48.676;7.986;2022-10-31T10:50:44;14.30;99.90
4856;DHT22;2442;48.676;7.986;2022-10-31T10:53:29;14.30;99.90
4856;DHT22;2442;48.676;7.986;2022-10-31T10:56:17;14.20;99.90
4856;DHT22;2442;48.676;7.986;2022-10-31T10:58:47;14.30;99.90
4856;DHT22;2442;48.676;7.986;2022-10-31T11:01:15;14.40;99.90
4856;DHT22;2442;48.676;7.986;2022-10-31T11:03:43;14.40;99.90
4856;DHT22;2442;48.676;7.986;2022-10-31T11:06:18;14.30;99.90
4856;DHT22;2442;48.676;7.986;2022-10-31T11:08:48;14.40;99.90
4856;DHT22;2442;48.676;7.986;2022-10-31T11:11:23;14.30;99.90
4856;DHT22;2442;48.676;7.986;2022-10-31T11:13:57;14.30;99.90
4856;DHT22;2442;48.676;7.986;2022-10-31T11:16:32;14.30;99.90
4856;DHT22;2442;48.676;7.986;2022-10-31T11:19:16;14.40;99.90
4856;DHT22;2442;48.676;7.986;2022-10-31T11:21:45;14.40;99.90
4856;DHT22;2442;48.676;7.986;2022-10-31T11:24:15;14.50;99.90
4856;DHT22;2442;48.676;7.986;2022-10-31T11:26:46;14.50;99.90
4856;DHT22;2442;48.676;7.986;2022-10-31T11:29:16;14.70;99.90
4856;DHT22;2442;48.676;7.986;2022-10-31T11:31:45;14.60;99.90
4856;DHT22;2442;48.676;7.986;2022-10-31T11:34:21;14.50;99.90
4856;DHT22;2442;48.676;7.986;2022-10-31T11:36:53;14.50;99.90
4856;DHT22;2442;48.676;7.986;2022-10-31T11:39:23;14.70;99.90
4856;DHT22;2442;48.676;7.986;2022-10-31T11:41:52;14.70;99.90
4856;DHT22;2442;48.676;7.986;2022-10-31T11:44:22;14.70;99.90
4856;DHT22;2442;48.676;7.986;2022-10-31T11:46:52;14.70;99.90
4856;DHT22;2442;48.676;7.986;2022-10-31T11:49:28;14.60;99.90
4856;DHT22;2442;48.676;7.986;2022-10-31T11:51:58;14.80;99.90
4856;DHT22;2442;48.676;7.986;2022-10-31T11:54:29;14.90;99.90
4856;DHT22;2442;48.676;7.986;2022-10-31T11:56:57;14.90;99.90
4856;DHT22;2442;48.676;7.986;2022-10-31T11:59:27;14.90;99.90
4856;DHT22;2442;48.676;7.986;2022-10-31T12:01:57;15.00;99.90
4856;DHT22;2442;48.676;7.986;2022-10-31T12:04:34;15.00;99.90
4856;DHT22;2442;48.676;7.986;2022-10-31T12:07:04;15.00;99.90
4856;DHT22;2442;48.676;7.986;2022-10-31T12:09:34;15.00;99.90
4856;DHT22;2442;48.676;7.986;2022-10-31T12:12:23;15.10;99.90
4856;DHT22;2442;48.676;7.986;2022-10-31T12:15:30;15.20;99.90
4856;DHT22;2442;48.676;7.986;2022-10-31T12:21:07;15.30;99.90
4856;DHT22;2442;48.676;7.986;2022-10-31T12:23:51;15.30;99.90
4856;DHT22;2442;48.676;7.986;2022-10-31T12:26:30;15.30;99.90
4856;DHT22;2442;48.676;7.986;2022-10-31T12:29:10;15.60;99.90
4856;DHT22;2442;48.676;7.986;2022-10-31T12:31:54;15.50;99.90
4856;DHT22;2442;48.676;7.986;2022-10-31T12:34:47;15.70;99.90
4856;DHT22;2442;48.676;7.986;2022-10-31T12:37:40;15.70;99.90
4856;DHT22;2442;48.676;7.986;2022-10-31T12:40:28;15.70;99.90
4856;DHT22;2442;48.676;7.986;2022-10-31T12:43:18;15.70;99.90
4856;DHT22;2442;48.676;7.986;2022-10-31T12:45:53;15.70;99.90
4856;DHT22;2442;48.676;7.986;2022-10-31T12:48:32;15.60;99.90
4856;DHT22;2442;48.676;7.986;2022-10-31T12:51:13;15.60;99.90
4856;DHT22;2442;48.676;7.986;2022-10-31T12:53:57;15.80;99.90
4856;DHT22;2442;48.676;7.986;2022-10-31T12:56:40;15.90;99.90
4856;DHT22;2442;48.676;7.986;2022-10-31T12:59:19;16.10;99.90
4856;DHT22;2442;48.676;7.986;2022-10-31T13:01:55;16.10;99.90
4856;DHT22;2442;48.676;7.986;2022-10-31T13:04:35;16.10;99.90
4856;DHT22;2442;48.676;7.986;2022-10-31T13:07:10;15.90;99.90
4856;DHT22;2442;48.676;7.986;2022-10-31T13:09:53;15.80;99.90
4856;DHT22;2442;48.676;7.986;2022-10-31T13:12:24;15.80;99.90
4856;DHT22;2442;48.676;7.986;2022-10-31T13:14:54;15.80;99.90
4856;DHT22;2442;48.676;7.986;2022-10-31T13:17:27;15.90;99.90
4856;DHT22;2442;48.676;7.986;2022-10-31T13:20:11;15.90;99.90
4856;DHT22;2442;48.676;7.986;2022-10-31T13:22:45;15.90;99.90
4856;DHT22;2442;48.676;7.986;2022-10-31T13:25:19;15.90;99.90
4856;DHT22;2442;48.676;7.986;2022-10-31T13:27:53;15.90;99.90
4856;DHT22;2442;48.676;7.986;2022-10-31T13:30:22;16.00;99.90
4856;DHT22;2442;48.676;7.986;2022-10-31T13:32:52;16.10;99.90
4856;DHT22;2442;48.676;7.986;2022-10-31T13:35:28;16.30;99.90
4856;DHT22;2442;48.676;7.986;2022-10-31T13:38:10;16.30;99.90
4856;DHT22;2442;48.676;7.986;2022-10-31T13:40:48;16.30;99.90
4856;DHT22;2442;48.676;7.986;2022-10-31T13:43:27;16.20;99.90
4856;DHT22;2442;48.676;7.986;2022-10-31T13:45:57;16.20;99.90
4856;DHT22;2442;48.676;7.986;2022-10-31T13:48:36;16.30;99.90
4856;DHT22;2442;48.676;7.986;2022-10-31T13:51:08;16.40;99.90
4856;DHT22;2442;48.676;7.986;2022-10-31T13:53:42;16.40;99.90
4856;DHT22;2442;48.676;7.986;2022-10-31T13:56:16;16.40;99.90
4856;DHT22;2442;48.676;7.986;2022-10-31T14:01:47;16.40;99.90
4856;DHT22;2442;48.676;7.986;2022-10-31T14:04:17;16.40;99.90
4856;DHT22;2442;48.676;7.986;2022-10-31T14:06:55;16.40;99.90
4856;DHT22;2442;48.676;7.986;2022-10-31T14:09:28;16.40;99.90
4856;DHT22;2442;48.676;7.986;2022-10-31T14:12:01;16.30;99.90
4856;DHT22;2442;48.676;7.986;2022-10-31T14:14:42;16.30;99.90
4856;DHT22;2442;48.676;7.986;2022-10-31T14:17:20;16.40;99.90
4856;DHT22;2442;48.676;7.986;2022-10-31T14:22:52;16.40;99.90
4856;DHT22;2442;48.676;7.986;2022-10-31T14:25:30;16.30;99.90
4856;DHT22;2442;48.676;7.986;2022-10-31T14:28:01;16.20;99.90
4856;DHT22;2442;48.676;7.986;2022-10-31T14:30:30;16.10;99.90
4856;DHT22;2442;48.676;7.986;2022-10-31T14:32:59;16.10;99.90
4856;DHT22;2442;48.676;7.986;2022-10-31T14:35:37;16.00;99.90
4856;DHT22;2442;48.676;7.986;2022-10-31T14:38:28;16.00;99.90
4856;DHT22;2442;48.676;7.986;2022-10-31T14:41:29;15.90;99.90
4856;DHT22;2442;48.676;7.986;2022-10-31T14:47:19;15.80;99.90
4856;DHT22;2442;48.676;7.986;2022-10-31T14:53:01;15.80;99.90
4856;DHT22;2442;48.676;7.986;2022-10-31T14:55:29;15.80;99.90
4856;DHT22;2442;48.676;7.986;2022-10-31T14:58:00;15.80;99.90
4856;DHT22;2442;48.676;7.986;2022-10-31T15:00:32;15.80;99.90
4856;DHT22;2442;48.676;7.986;2022-10-31T15:03:12;15.80;99.90
4856;DHT22;2442;48.676;7.986;2022-10-31T15:05:45;15.80;99.90
4856;DHT22;2442;48.676;7.986;2022-10-31T15:08:32;15.70;99.90
4856;DHT22;2442;48.676;7.986;2022-10-31T15:11:09;15.60;99.90
4856;DHT22;2442;48.676;7.986;2022-10-31T15:13:42;15.50;99.90
4856;DHT22;2442;48.676;7.986;2022-10-31T15:16:14;15.60;99.90
4856;DHT22;2442;48.676;7.986;2022-10-31T15:18:52;15.50;99.90
4856;DHT22;2442;48.676;7.986;2022-10-31T15:21:22;15.40;99.90
4856;DHT22;2442;48.676;7.986;2022-10-31T15:23:52;15.30;99.90
4856;DHT22;2442;48.676;7.986;2022-10-31T15:26:23;15.20;99.90
4856;DHT22;2442;48.676;7.986;2022-10-31T15:28:58;15.10;99.90
4856;DHT22;2442;48.676;7.986;2022-10-31T15:31:28;15.00;99.90
4856;DHT22;2442;48.676;7.986;2022-10-31T15:34:00;15.00;99.90
4856;DHT22;2442;48.676;7.986;2022-10-31T15:36:30;14.90;99.90
4856;DHT22;2442;48.676;7.986;2022-10-31T15:38:58;14.80;99.90
4856;DHT22;2442;48.676;7.986;2022-10-31T15:41:31;14.80;99.90
4856;DHT22;2442;48.676;7.986;2022-10-31T15:44:04;14.90;99.90
4856;DHT22;2442;48.676;7.986;2022-10-31T15:46:39;14.80;99.90
4856;DHT22;2442;48.676;7.986;2022-10-31T15:49:31;14.80;99.90
4856;DHT22;2442;48.676;7.986;2022-10-31T15:52:11;14.80;99.90
4856;DHT22;2442;48.676;7.986;2022-10-31T15:54:47;14.90;99.90
4856;DHT22;2442;48.676;7.986;2022-10-31T15:57:15;14.90;99.90
4856;DHT22;2442;48.676;7.986;2022-10-31T15:59:46;14.80;99.90
4856;DHT22;2442;48.676;7.986;2022-10-31T16:02:19;14.80;99.90
4856;DHT22;2442;48.676;7.986;2022-10-31T16:04:54;14.90;99.90
4856;DHT22;2442;48.676;7.986;2022-10-31T16:07:22;14.90;99.90
4856;DHT22;2442;48.676;7.986;2022-10-31T16:09:51;14.80;99.90
4856;DHT22;2442;48.676;7.986;2022-10-31T16:12:21;14.70;99.90
4856;DHT22;2442;48.676;7.986;2022-10-31T16:14:50;14.70;99.90
4856;DHT22;2442;48.676;7.986;2022-10-31T16:17:22;14.60;99.90
4856;DHT22;2442;48.676;7.986;2022-10-31T16:19:54;14.60;99.90
4856;DHT22;2442;48.676;7.986;2022-10-31T16:22:26;14.60;99.90
4856;DHT22;2442;48.676;7.986;2022-10-31T16:24:58;14.30;99.90
4856;DHT22;2442;48.676;7.986;2022-10-31T16:27:29;14.30;99.90
4856;DHT22;2442;48.676;7.986;2022-10-31T16:29:59;14.30;99.90
4856;DHT22;2442;48.676;7.986;2022-10-31T16:32:36;14.10;99.90
4856;DHT22;2442;48.676;7.986;2022-10-31T16:35:24;14.00;99.90
4856;DHT22;2442;48.676;7.986;2022-10-31T16:37:52;14.10;99.90
4856;DHT22;2442;48.676;7.986;2022-10-31T16:40:20;14.10;99.90
4856;DHT22;2442;48.676;7.986;2022-10-31T16:42:47;14.00;99.90
4856;DHT22;2442;48.676;7.986;2022-10-31T16:45:17;13.80;99.90
4856;DHT22;2442;48.676;7.986;2022-10-31T16:47:47;13.20;99.90
4856;DHT22;2442;48.676;7.986;2022-10-31T16:50:16;13.20;99.90
4856;DHT22;2442;48.676;7.986;2022-10-31T16:52:45;13.20;99.90
4856;DHT22;2442;48.676;7.986;2022-10-31T16:55:13;13.20;99.90
4856;DHT22;2442;48.676;7.986;2022-10-31T16:57:43;13.20;99.90
4856;DHT22;2442;48.676;7.986;2022-10-31T17:00:16;13.20;99.90